sensor_id;sensor_type;location;lat;lon;timestamp;temperature;humidity
3778;DHT22;1904;50.076;8.660;2023-01-28T00:01:15;3.70;1.00
3778;DHT22;1904;50.076;8.660;2023-01-28T00:03:41;3.60;1.00
3778;DHT22;1904;50.076;8.660;2023-01-28T00:06:19;3.60;1.00
3778;DHT22;1904;50.076;8.660;2023-01-28T00:08:45;3.50;1.00
3778;DHT22;1904;50.076;8.660;2023-01-28T00:11:19;3.40;1.00
3778;DHT22;1904;50.076;8.660;2023-01-28T00:13:50;3.40;1.00
3778;DHT22;1904;50.076;8.660;2023-01-28T00:16:19;3.40;1.00
3778;DHT22;1904;50.076;8.660;2023-01-28T00:18:55;3.30;1.00
3778;DHT22;1904;50.076;8.660;2023-01-28T00:21:21;3.20;1.00
3778;DHT22;1904;50.076;8.660;2023-01-28T00:23:47;3.20;1.00
3778;DHT22;1904;50.076;8.660;2023-01-28T00:26:14;3.20;1.00
3778;DHT22;1904;50.076;8.660;2023-01-28T00:28:40;3.20;1.00
3778;DHT22;1904;50.076;8.660;2023-01-28T00:31:08;3.10;1.00
3778;DHT22;1904;50.076;8.660;2023-01-28T00:33:37;3.10;1.00
3778;DHT22;1904;50.076;8.660;2023-01-28T00:36:20;3.10;1.00
3778;DHT22;1904;50.076;8.660;2023-01-28T00:38:50;3.10;1.00
3778;DHT22;1904;50.076;8.660;2023-01-28T00:41:20;3.10;1.00
3778;DHT22;1904;50.076;8.660;2023-01-28T00:43:49;3.10;1.00
3778;DHT22;1904;50.076;8.660;2023-01-28T00:46:20;3.20;1.00
3778;DHT22;1904;50.076;8.660;2023-01-28T00:48:55;3.30;1.00
3778;DHT22;1904;50.076;8.660;2023-01-28T00:51:25;3.30;1.00
3778;DHT22;1904;50.076;8.660;2023-01-28T00:53:55;3.30;1.00
3778;DHT22;1904;50.076;8.660;2023-01-28T00:56:25;3.30;1.00
3778;DHT22;1904;50.076;8.660;2023-01-28T00:58:55;3.20;1.00
3778;DHT22;1904;50.076;8.660;2023-01-28T01:01:31;3.20;1.00
3778;DHT22;1904;50.076;8.660;2023-01-28T01:04:01;3.20;1.00
3778;DHT22;1904;50.076;8.660;2023-01-28T01:06:32;3.20;1.00
3778;DHT22;1904;50.076;8.660;2023-01-28T01:21:07;3.40;1.00
3778;DHT22;1904;50.076;8.660;2023-01-28T01:23:49;3.40;1.00
3778;DHT22;1904;50.076;8.660;2023-01-28T01:29:18;3.40;1.00
3778;DHT22;1904;50.076;8.660;2023-01-28T01:34:33;3.50;1.00
3778;DHT22;1904;50.076;8.660;2023-01-28T01:40:07;3.50;1.00
3778;DHT22;1904;50.076;8.660;2023-01-28T01:42:37;3.50;1.00
3778;DHT22;1904;50.076;8.660;2023-01-28T01:45:04;3.50;1.00
3778;DHT22;1904;50.076;8.660;2023-01-28T01:53:02;3.50;1.00
3778;DHT22;1904;50.076;8.660;2023-01-28T01:55:29;3.50;1.00
3778;DHT22;1904;50.076;8.660;2023-01-28T01:58:09;3.50;1.00
3778;DHT22;1904;50.076;8.660;2023-01-28T02:03:27;3.40;1.00
3778;DHT22;1904;50.076;8.660;2023-01-28T02:05:55;3.40;1.00
3778;DHT22;1904;50.076;8.660;2023-01-28T02:08:25;3.40;1.00
3778;DHT22;1904;50.076;8.660;2023-01-28T02:13:28;3.50;1.00
3778;DHT22;1904;50.076;8.660;2023-01-28T02:15:55;3.50;1.00
3778;DHT22;1904;50.076;8.660;2023-01-28T02:18:25;3.50;1.00
3778;DHT22;1904;50.076;8.660;2023-01-28T02:20:56;3.50;1.00
3778;DHT22;1904;50.076;8.660;2023-01-28T02:23:34;3.50;1.00
3778;DHT22;1904;50.076;8.660;2023-01-28T02:39:58;3.50;1.00
3778;DHT22;1904;50.076;8.660;2023-01-28T02:42:43;3.50;1.00
3778;DHT22;1904;50.076;8.660;2023-01-28T02:51:33;3.40;1.00
3778;DHT22;1904;50.076;8.660;2023-01-28T02:54:10;3.40;1.00
3778;DHT22;1904;50.076;8.660;2023-01-28T03:08:06;3.40;1.00
3778;DHT22;1904;50.076;8.660;2023-01-28T03:10:53;3.40;1.00
3778;DHT22;1904;50.076;8.660;2023-01-28T03:13:55;3.40;1.00
3778;DHT22;1904;50.076;8.660;2023-01-28T03:16:40;3.40;1.00
3778;DHT22;1904;50.076;8.660;2023-01-28T03:19:25;3.40;1.00
3778;DHT22;1904;50.076;8.660;2023-01-28T03:22:09;3.30;1.00
3778;DHT22;1904;50.076;8.660;2023-01-28T03:25:01;3.30;1.00
3778;DHT22;1904;50.076;8.660;2023-01-28T03:27:47;3.30;1.00
3778;DHT22;1904;50.076;8.660;2023-01-28T03:30:50;3.30;1.00
3778;DHT22;1904;50.076;8.660;2023-01-28T03:33:36;3.30;1.00
3778;DHT22;1904;50.076;8.660;2023-01-28T03:45:21;3.30;1.00
3778;DHT22;1904;50.076;8.660;2023-01-28T03:47:55;3.30;1.00
3778;DHT22;1904;50.076;8.660;2023-01-28T03:53:24;3.30;1.00
3778;DHT22;1904;50.076;8.660;2023-01-28T03:58:42;3.40;1.00
3778;DHT22;1904;50.076;8.660;2023-01-28T04:01:17;3.30;1.00
3778;DHT22;1904;50.076;8.660;2023-01-28T04:03:43;3.30;1.00
3778;DHT22;1904;50.076;8.660;2023-01-28T04:06:09;3.30;1.00
3778;DHT22;1904;50.076;8.660;2023-01-28T04:08:37;3.30;1.00
3778;DHT22;1904;50.076;8.660;2023-01-28T04:11:07;3.40;1.00
3778;DHT22;1904;50.076;8.660;2023-01-28T04:16:37;3.40;1.00
3778;DHT22;1904;50.076;8.660;2023-01-28T04:19:03;3.30;1.00
3778;DHT22;1904;50.076;8.660;2023-01-28T04:21:29;3.40;1.00
3778;DHT22;1904;50.076;8.660;2023-01-28T04:24:01;3.40;1.00
3778;DHT22;1904;50.076;8.660;2023-01-28T04:29:25;3.30;1.00
3778;DHT22;1904;50.076;8.660;2023-01-28T04:32:01;3.30;1.00
3778;DHT22;1904;50.076;8.660;2023-01-28T04:46:37;3.30;1.00
3778;DHT22;1904;50.076;8.660;2023-01-28T04:49:07;3.30;1.00
3778;DHT22;1904;50.076;8.660;2023-01-28T04:51:33;3.30;1.00
3778;DHT22;1904;50.076;8.660;2023-01-28T04:54:01;3.30;1.00
3778;DHT22;1904;50.076;8.660;2023-01-28T04:56:27;3.30;1.00
3778;DHT22;1904;50.076;8.660;2023-01-28T04:58:55;3.30;1.00
3778;DHT22;1904;50.076;8.660;2023-01-28T05:01:31;3.30;1.00
3778;DHT22;1904;50.076;8.660;2023-01-28T05:03:57;3.30;1.00
3778;DHT22;1904;50.076;8.660;2023-01-28T05:06:25;3.30;1.00
3778;DHT22;1904;50.076;8.660;2023-01-28T05:09:07;3.30;1.00
3778;DHT22;1904;50.076;8.660;2023-01-28T05:11:37;3.30;1.00
3778;DHT22;1904;50.076;8.660;2023-01-28T05:14:13;3.30;1.00
3778;DHT22;1904;50.076;8.660;2023-01-28T05:16:43;3.30;1.00
3778;DHT22;1904;50.076;8.660;2023-01-28T05:19:13;3.30;1.00
3778;DHT22;1904;50.076;8.660;2023-01-28T05:21:43;3.30;1.00
3778;DHT22;1904;50.076;8.660;2023-01-28T05:24:25;3.30;1.00
3778;DHT22;1904;50.076;8.660;2023-01-28T05:26:51;3.30;1.00
3778;DHT22;1904;50.076;8.660;2023-01-28T05:29:19;3.20;1.00
3778;DHT22;1904;50.076;8.660;2023-01-28T05:31:46;3.20;1.00
3778;DHT22;1904;50.076;8.660;2023-01-28T05:34:19;3.30;1.00
3778;DHT22;1904;50.076;8.660;2023-01-28T05:36:45;3.30;1.00
3778;DHT22;1904;50.076;8.660;2023-01-28T05:39:13;3.30;1.00
3778;DHT22;1904;50.076;8.660;2023-01-28T05:48:01;3.30;1.00
3778;DHT22;1904;50.076;8.660;2023-01-28T05:50:31;3.30;1.00
3778;DHT22;1904;50.076;8.660;2023-01-28T05:52:57;3.30;1.00
3778;DHT22;1904;50.076;8.660;2023-01-28T05:55:25;3.20;1.00
3778;DHT22;1904;50.076;8.660;2023-01-28T06:01:13;3.20;1.00
3778;DHT22;1904;50.076;8.660;2023-01-28T06:06:49;3.20;1.00
3778;DHT22;1904;50.076;8.660;2023-01-28T06:09:15;3.30;1.00
3778;DHT22;1904;50.076;8.660;2023-01-28T06:11:43;3.30;1.00
3778;DHT22;1904;50.076;8.660;2023-01-28T06:14:10;3.20;1.00
3778;DHT22;1904;50.076;8.660;2023-01-28T06:16:43;3.30;1.00
3778;DHT22;1904;50.076;8.660;2023-01-28T06:19:13;3.30;1.00
3778;DHT22;1904;50.076;8.660;2023-01-28T06:21:39;3.30;1.00
3778;DHT22;1904;50.076;8.660;2023-01-28T06:24:07;3.30;1.00
3778;DHT22;1904;50.076;8.660;2023-01-28T06:26:37;3.30;1.00
3778;DHT22;1904;50.076;8.660;2023-01-28T06:29:03;3.30;1.00
3778;DHT22;1904;50.076;8.660;2023-01-28T06:31:31;3.30;1.00
3778;DHT22;1904;50.076;8.660;2023-01-28T06:33:57;3.30;1.00
3778;DHT22;1904;50.076;8.660;2023-01-28T06:36:31;3.30;1.00
3778;DHT22;1904;50.076;8.660;2023-01-28T06:39:01;3.30;1.00
3778;DHT22;1904;50.076;8.660;2023-01-28T06:41:43;3.30;1.00
3778;DHT22;1904;50.076;8.660;2023-01-28T06:44:19;3.30;1.00
3778;DHT22;1904;50.076;8.660;2023-01-28T06:46:46;3.30;1.00
3778;DHT22;1904;50.076;8.660;2023-01-28T06:49:13;3.30;1.00
3778;DHT22;1904;50.076;8.660;2023-01-28T06:51:39;3.30;1.00
3778;DHT22;1904;50.076;8.660;2023-01-28T06:54:14;3.30;1.00
3778;DHT22;1904;50.076;8.660;2023-01-28T06:56:43;3.30;1.00
3778;DHT22;1904;50.076;8.660;2023-01-28T06:59:13;3.30;1.00
3778;DHT22;1904;50.076;8.660;2023-01-28T07:01:43;3.30;1.00
3778;DHT22;1904;50.076;8.660;2023-01-28T07:04:19;3.30;1.00
3778;DHT22;1904;50.076;8.660;2023-01-28T07:06:49;3.30;1.00
3778;DHT22;1904;50.076;8.660;2023-01-28T07:09:19;3.30;1.00
3778;DHT22;1904;50.076;8.660;2023-01-28T07:11:45;3.40;1.00
3778;DHT22;1904;50.076;8.660;2023-01-28T07:14:25;3.40;1.00
3778;DHT22;1904;50.076;8.660;2023-01-28T07:16:55;3.40;1.00
3778;DHT22;1904;50.076;8.660;2023-01-28T07:19:25;3.40;1.00
3778;DHT22;1904;50.076;8.660;2023-01-28T07:21:55;3.40;1.00
3778;DHT22;1904;50.076;8.660;2023-01-28T07:24:25;3.40;1.00
3778;DHT22;1904;50.076;8.660;2023-01-28T07:26:51;3.40;1.00
3778;DHT22;1904;50.076;8.660;2023-01-28T07:29:19;3.40;1.00
3778;DHT22;1904;50.076;8.660;2023-01-28T07:31:49;3.40;1.00
3778;DHT22;1904;50.076;8.660;2023-01-28T07:34:19;3.40;1.00
3778;DHT22;1904;50.076;8.660;2023-01-28T07:36:49;3.40;1.00
3778;DHT22;1904;50.076;8.660;2023-01-28T07:39:31;3.50;1.00
3778;DHT22;1904;50.076;8.660;2023-01-28T07:42:07;3.50;1.00
3778;DHT22;1904;50.076;8.660;2023-01-28T07:47:25;3.40;1.00
3778;DHT22;1904;50.076;8.660;2023-01-28T07:50:08;3.40;1.00
3778;DHT22;1904;50.076;8.660;2023-01-28T07:52:37;3.50;1.00
3778;DHT22;1904;50.076;8.660;2023-01-28T07:58:02;3.50;1.00
3778;DHT22;1904;50.076;8.660;2023-01-28T08:00:33;3.50;1.00
3778;DHT22;1904;50.076;8.660;2023-01-28T08:03:00;3.50;1.00
3778;DHT22;1904;50.076;8.660;2023-01-28T08:05:47;3.50;1.00
3778;DHT22;1904;50.076;8.660;2023-01-28T08:08:25;3.50;1.00
3778;DHT22;1904;50.076;8.660;2023-01-28T08:10:55;3.50;1.00
3778;DHT22;1904;50.076;8.660;2023-01-28T08:16:19;3.60;1.00
3778;DHT22;1904;50.076;8.660;2023-01-28T08:18:49;3.60;1.00
3778;DHT22;1904;50.076;8.660;2023-01-28T08:21:25;3.60;1.00
3778;DHT22;1904;50.076;8.660;2023-01-28T08:23:55;3.60;1.00
3778;DHT22;1904;50.076;8.660;2023-01-28T08:29:25;3.60;1.00
3778;DHT22;1904;50.076;8.660;2023-01-28T08:31:55;3.60;1.00
3778;DHT22;1904;50.076;8.660;2023-01-28T08:34:25;3.70;1.00
3778;DHT22;1904;50.076;8.660;2023-01-28T08:36:55;3.70;1.00
3778;DHT22;1904;50.076;8.660;2023-01-28T08:39:25;3.70;1.00
3778;DHT22;1904;50.076;8.660;2023-01-28T08:41:55;3.70;1.00
3778;DHT22;1904;50.076;8.660;2023-01-28T08:47:25;3.60;1.00
3778;DHT22;1904;50.076;8.660;2023-01-28T08:49:51;3.70;1.00
3778;DHT22;1904;50.076;8.660;2023-01-28T08:52:19;3.70;1.00
3778;DHT22;1904;50.076;8.660;2023-01-28T08:54:55;3.70;1.00
3778;DHT22;1904;50.076;8.660;2023-01-28T08:57:21;3.70;1.00
3778;DHT22;1904;50.076;8.660;2023-01-28T09:02:37;3.80;1.00
3778;DHT22;1904;50.076;8.660;2023-01-28T09:05:07;3.80;1.00
3778;DHT22;1904;50.076;8.660;2023-01-28T09:07:34;3.80;1.00
3778;DHT22;1904;50.076;8.660;2023-01-28T09:13:14;3.70;1.00
3778;DHT22;1904;50.076;8.660;2023-01-28T09:15:43;3.80;1.00
3778;DHT22;1904;50.076;8.660;2023-01-28T09:18:13;3.70;1.00
3778;DHT22;1904;50.076;8.660;2023-01-28T09:23:43;3.80;1.00
3778;DHT22;1904;50.076;8.660;2023-01-28T09:26:25;3.80;1.00
3778;DHT22;1904;50.076;8.660;2023-01-28T09:28:55;3.80;1.00
3778;DHT22;1904;50.076;8.660;2023-01-28T09:31:21;3.80;1.00
3778;DHT22;1904;50.076;8.660;2023-01-28T09:33:49;3.80;1.00
3778;DHT22;1904;50.076;8.660;2023-01-28T09:36:25;3.90;1.00
3778;DHT22;1904;50.076;8.660;2023-01-28T09:39:07;4.00;1.00
3778;DHT22;1904;50.076;8.660;2023-01-28T09:46:59;4.10;1.00
3778;DHT22;1904;50.076;8.660;2023-01-28T09:55:33;4.40;1.00
3778;DHT22;1904;50.076;8.660;2023-01-28T09:58:03;4.40;1.00
3778;DHT22;1904;50.076;8.660;2023-01-28T10:20:43;4.10;1.00
3778;DHT22;1904;50.076;8.660;2023-01-28T10:34:50;4.20;1.00
3778;DHT22;1904;50.076;8.660;2023-01-28T10:40:19;4.30;1.00
3778;DHT22;1904;50.076;8.660;2023-01-28T10:42:45;4.30;1.00
3778;DHT22;1904;50.076;8.660;2023-01-28T10:50:48;4.40;1.00
3778;DHT22;1904;50.076;8.660;2023-01-28T11:02:34;4.40;1.00
3778;DHT22;1904;50.076;8.660;2023-01-28T11:05:06;4.40;1.00
3778;DHT22;1904;50.076;8.660;2023-01-28T11:07:32;4.40;1.00
3778;DHT22;1904;50.076;8.660;2023-01-28T11:12:56;4.30;1.00
3778;DHT22;1904;50.076;8.660;2023-01-28T11:15:26;4.30;1.00
3778;DHT22;1904;50.076;8.660;2023-01-28T11:20:42;4.40;1.00
3778;DHT22;1904;50.076;8.660;2023-01-28T11:26:14;4.30;1.00
3778;DHT22;1904;50.076;8.660;2023-01-28T11:28:44;4.20;1.00
3778;DHT22;1904;50.076;8.660;2023-01-28T11:34:19;4.20;1.00
3778;DHT22;1904;50.076;8.660;2023-01-28T11:37:23;4.10;1.00
3778;DHT22;1904;50.076;8.660;2023-01-28T11:45:47;4.30;1.00
3778;DHT22;1904;50.076;8.660;2023-01-28T11:48:25;4.30;1.00
3778;DHT22;1904;50.076;8.660;2023-01-28T11:53:52;4.30;1.00
3778;DHT22;1904;50.076;8.660;2023-01-28T12:01:55;4.60;1.00
3778;DHT22;1904;50.076;8.660;2023-01-28T12:31:48;4.40;1.00
3778;DHT22;1904;50.076;8.660;2023-01-28T12:34:32;4.30;1.00
3778;DHT22;1904;50.076;8.660;2023-01-28T12:39:58;4.10;1.00
3778;DHT22;1904;50.076;8.660;2023-01-28T12:45:15;4.00;1.00
3778;DHT22;1904;50.076;8.660;2023-01-28T12:47:47;4.00;1.00
3778;DHT22;1904;50.076;8.660;2023-01-28T12:58:54;4.00;1.00
3778;DHT22;1904;50.076;8.660;2023-01-28T13:07:28;4.20;1.00
3778;DHT22;1904;50.076;8.660;2023-01-28T13:12:56;4.20;1.00
3778;DHT22;1904;50.076;8.660;2023-01-28T13:15:22;4.20;1.00
3778;DHT22;1904;50.076;8.660;2023-01-28T13:17:57;4.20;1.00
3778;DHT22;1904;50.076;8.660;2023-01-28T13:23:02;4.20;1.00
3778;DHT22;1904;50.076;8.660;2023-01-28T13:28:24;4.20;1.00
3778;DHT22;1904;50.076;8.660;2023-01-28T13:30:50;4.30;1.00
3778;DHT22;1904;50.076;8.660;2023-01-28T13:33:33;4.20;1.00
3778;DHT22;1904;50.076;8.660;2023-01-28T13:36:00;4.20;1.00
3778;DHT22;1904;50.076;8.660;2023-01-28T13:38:27;4.20;1.00
3778;DHT22;1904;50.076;8.660;2023-01-28T13:41:02;4.30;1.00
3778;DHT22;1904;50.076;8.660;2023-01-28T13:46:11;4.20;1.00
3778;DHT22;1904;50.076;8.660;2023-01-28T13:48:50;4.20;1.00
3778;DHT22;1904;50.076;8.660;2023-01-28T14:16:51;4.00;1.00
3778;DHT22;1904;50.076;8.660;2023-01-28T14:19:27;4.00;1.00
3778;DHT22;1904;50.076;8.660;2023-01-28T14:22:08;3.90;1.00
3778;DHT22;1904;50.076;8.660;2023-01-28T14:24:35;3.90;1.00
3778;DHT22;1904;50.076;8.660;2023-01-28T14:33:02;4.00;1.00
3778;DHT22;1904;50.076;8.660;2023-01-28T14:35:33;3.90;1.00
3778;DHT22;1904;50.076;8.660;2023-01-28T14:38:15;4.00;1.00
3778;DHT22;1904;50.076;8.660;2023-01-28T14:40:44;3.90;1.00
3778;DHT22;1904;50.076;8.660;2023-01-28T14:43:23;4.00;1.00
3778;DHT22;1904;50.076;8.660;2023-01-28T14:48:37;3.80;1.00
3778;DHT22;1904;50.076;8.660;2023-01-28T14:59:45;3.80;1.00
3778;DHT22;1904;50.076;8.660;2023-01-28T15:07:45;3.90;1.00
3778;DHT22;1904;50.076;8.660;2023-01-28T15:10:15;3.90;1.00
3778;DHT22;1904;50.076;8.660;2023-01-28T15:15:50;3.80;1.00
3778;DHT22;1904;50.076;8.660;2023-01-28T15:18:22;3.70;1.00
3778;DHT22;1904;50.076;8.660;2023-01-28T15:26:55;3.70;1.00
3778;DHT22;1904;50.076;8.660;2023-01-28T15:29:25;3.60;1.00
3778;DHT22;1904;50.076;8.660;2023-01-28T15:34:44;3.50;1.00
3778;DHT22;1904;50.076;8.660;2023-01-28T15:37:10;3.40;1.00
3778;DHT22;1904;50.076;8.660;2023-01-28T15:42:26;3.40;1.00
3778;DHT22;1904;50.076;8.660;2023-01-28T15:48:03;3.40;1.00
3778;DHT22;1904;50.076;8.660;2023-01-28T15:56:32;3.50;1.00
3778;DHT22;1904;50.076;8.660;2023-01-28T16:08:02;3.40;1.00
3778;DHT22;1904;50.076;8.660;2023-01-28T16:10:49;3.30;1.00
3778;DHT22;1904;50.076;8.660;2023-01-28T16:19:14;3.20;1.00
3778;DHT22;1904;50.076;8.660;2023-01-28T16:21:56;3.10;1.00
3778;DHT22;1904;50.076;8.660;2023-01-28T16:24:27;3.10;1.00
3778;DHT22;1904;50.076;8.660;2023-01-28T16:26:56;3.10;1.00
3778;DHT22;1904;50.076;8.660;2023-01-28T16:38:02;3.00;1.00
3778;DHT22;1904;50.076;8.660;2023-01-28T16:49:15;3.00;1.00
3778;DHT22;1904;50.076;8.660;2023-01-28T16:51:44;2.90;1.00
3778;DHT22;1904;50.076;8.660;2023-01-28T16:54:14;3.00;1.00
3778;DHT22;1904;50.076;8.660;2023-01-28T16:56:44;3.00;1.00
3778;DHT22;1904;50.076;8.660;2023-01-28T16:59:26;2.90;1.00
3778;DHT22;1904;50.076;8.660;2023-01-28T17:07:42;2.90;1.00
3778;DHT22;1904;50.076;8.660;2023-01-28T17:10:08;2.90;1.00
3778;DHT22;1904;50.076;8.660;2023-01-28T17:12:34;2.90;1.00
3778;DHT22;1904;50.076;8.660;2023-01-28T17:15:00;2.90;1.00
3778;DHT22;1904;50.076;8.660;2023-01-28T17:23:38;3.00;1.00
3778;DHT22;1904;50.076;8.660;2023-01-28T17:26:14;2.90;1.00
3778;DHT22;1904;50.076;8.660;2023-01-28T17:31:44;2.80;1.00
3778;DHT22;1904;50.076;8.660;2023-01-28T17:34:20;2.80;1.00
3778;DHT22;1904;50.076;8.660;2023-01-28T17:36:45;2.80;1.00
3778;DHT22;1904;50.076;8.660;2023-01-28T17:44:56;2.80;1.00
3778;DHT22;1904;50.076;8.660;2023-01-28T17:59:18;2.50;1.00
3778;DHT22;1904;50.076;8.660;2023-01-28T18:01:56;2.50;1.00
3778;DHT22;1904;50.076;8.660;2023-01-28T18:07:25;2.50;1.00
3778;DHT22;1904;50.076;8.660;2023-01-28T18:09:56;2.50;1.00
3778;DHT22;1904;50.076;8.660;2023-01-28T18:15:32;2.40;1.00
3778;DHT22;1904;50.076;8.660;2023-01-28T18:21:05;2.40;1.00
3778;DHT22;1904;50.076;8.660;2023-01-28T18:23:32;2.30;1.00
3778;DHT22;1904;50.076;8.660;2023-01-28T18:25:58;2.30;1.00
3778;DHT22;1904;50.076;8.660;2023-01-28T18:31:09;2.30;1.00
3778;DHT22;1904;50.076;8.660;2023-01-28T18:45:56;2.30;1.00
3778;DHT22;1904;50.076;8.660;2023-01-28T18:54:26;2.30;1.00
3778;DHT22;1904;50.076;8.660;2023-01-28T18:59:56;2.30;1.00
3778;DHT22;1904;50.076;8.660;2023-01-28T19:05:05;2.40;1.00
3778;DHT22;1904;50.076;8.660;2023-01-28T19:10:32;2.40;1.00
3778;DHT22;1904;50.076;8.660;2023-01-28T19:13:02;2.40;1.00
3778;DHT22;1904;50.076;8.660;2023-01-28T19:15:27;2.40;1.00
3778;DHT22;1904;50.076;8.660;2023-01-28T19:17:54;2.40;1.00
3778;DHT22;1904;50.076;8.660;2023-01-28T19:20:26;2.40;1.00
3778;DHT22;1904;50.076;8.660;2023-01-28T19:23:02;2.50;1.00
3778;DHT22;1904;50.076;8.660;2023-01-28T19:25:35;2.50;1.00
3778;DHT22;1904;50.076;8.660;2023-01-28T19:28:02;2.60;1.00
3778;DHT22;1904;50.076;8.660;2023-01-28T19:30:38;2.50;1.00
3778;DHT22;1904;50.076;8.660;2023-01-28T19:45:00;2.70;1.00
3778;DHT22;1904;50.076;8.660;2023-01-28T19:47:26;2.70;1.00
3778;DHT22;1904;50.076;8.660;2023-01-28T19:49:56;2.70;1.00
3778;DHT22;1904;50.076;8.660;2023-01-28T19:52:26;2.70;1.00
3778;DHT22;1904;50.076;8.660;2023-01-28T19:54:51;2.70;1.00
3778;DHT22;1904;50.076;8.660;2023-01-28T19:57:17;2.70;1.00
3778;DHT22;1904;50.076;8.660;2023-01-28T19:59:43;2.70;1.00
3778;DHT22;1904;50.076;8.660;2023-01-28T20:02:14;2.70;1.00
3778;DHT22;1904;50.076;8.660;2023-01-28T20:07:29;2.70;1.00
3778;DHT22;1904;50.076;8.660;2023-01-28T20:10:02;2.70;1.00
3778;DHT22;1904;50.076;8.660;2023-01-28T20:12:32;2.60;1.00
3778;DHT22;1904;50.076;8.660;2023-01-28T20:20:54;2.50;1.00
3778;DHT22;1904;50.076;8.660;2023-01-28T20:35:12;2.40;1.00
3778;DHT22;1904;50.076;8.660;2023-01-28T20:40:44;2.40;1.00
3778;DHT22;1904;50.076;8.660;2023-01-28T20:46:32;2.40;1.00
3778;DHT22;1904;50.076;8.660;2023-01-28T20:57:51;2.40;1.00
3778;DHT22;1904;50.076;8.660;2023-01-28T21:00:20;2.30;1.00
3778;DHT22;1904;50.076;8.660;2023-01-28T21:02:46;2.30;1.00
3778;DHT22;1904;50.076;8.660;2023-01-28T21:05:14;2.30;1.00
3778;DHT22;1904;50.076;8.660;2023-01-28T21:07:44;2.20;1.00
3778;DHT22;1904;50.076;8.660;2023-01-28T21:10:10;2.20;1.00
3778;DHT22;1904;50.076;8.660;2023-01-28T21:18:41;2.20;1.00
3778;DHT22;1904;50.076;8.660;2023-01-28T21:21:40;2.20;1.00
3778;DHT22;1904;50.076;8.660;2023-01-28T21:24:14;2.20;1.00
3778;DHT22;1904;50.076;8.660;2023-01-28T21:26:39;2.20;1.00
3778;DHT22;1904;50.076;8.660;2023-01-28T21:29:08;2.20;1.00
3778;DHT22;1904;50.076;8.660;2023-01-28T21:40:32;2.10;1.00
3778;DHT22;1904;50.076;8.660;2023-01-28T21:43:02;2.10;1.00
3778;DHT22;1904;50.076;8.660;2023-01-28T21:45:32;2.10;1.00
3778;DHT22;1904;50.076;8.660;2023-01-28T21:47:57;2.10;1.00
3778;DHT22;1904;50.076;8.660;2023-01-28T21:50:26;2.10;1.00
3778;DHT22;1904;50.076;8.660;2023-01-28T21:52:56;2.10;1.00
3778;DHT22;1904;50.076;8.660;2023-01-28T21:55:21;2.10;1.00
3778;DHT22;1904;50.076;8.660;2023-01-28T21:57:47;2.10;1.00
3778;DHT22;1904;50.076;8.660;2023-01-28T22:00:13;2.10;1.00
3778;DHT22;1904;50.076;8.660;2023-01-28T22:05:41;2.20;1.00
3778;DHT22;1904;50.076;8.660;2023-01-28T22:08:14;2.20;1.00
3778;DHT22;1904;50.076;8.660;2023-01-28T22:19:38;2.20;1.00
3778;DHT22;1904;50.076;8.660;2023-01-28T22:22:04;2.20;1.00
3778;DHT22;1904;50.076;8.660;2023-01-28T22:24:30;2.20;1.00
3778;DHT22;1904;50.076;8.660;2023-01-28T22:26:55;2.30;1.00
3778;DHT22;1904;50.076;8.660;2023-01-28T22:29:26;2.30;1.00
3778;DHT22;1904;50.076;8.660;2023-01-28T22:31:52;2.30;1.00
3778;DHT22;1904;50.076;8.660;2023-01-28T22:34:32;2.30;1.00
3778;DHT22;1904;50.076;8.660;2023-01-28T22:36:58;2.30;1.00
3778;DHT22;1904;50.076;8.660;2023-01-28T22:39:23;2.30;1.00
3778;DHT22;1904;50.076;8.660;2023-01-28T22:41:49;2.30;1.00
3778;DHT22;1904;50.076;8.660;2023-01-28T22:44:14;2.30;1.00
3778;DHT22;1904;50.076;8.660;2023-01-28T22:46:44;2.30;1.00
3778;DHT22;1904;50.076;8.660;2023-01-28T22:51:57;2.40;1.00
3778;DHT22;1904;50.076;8.660;2023-01-28T22:54:26;2.40;1.00
3778;DHT22;1904;50.076;8.660;2023-01-28T22:56:56;2.30;1.00
3778;DHT22;1904;50.076;8.660;2023-01-28T22:59:26;2.30;1.00
3778;DHT22;1904;50.076;8.660;2023-01-28T23:02:02;2.30;1.00
3778;DHT22;1904;50.076;8.660;2023-01-28T23:04:32;2.30;1.00
3778;DHT22;1904;50.076;8.660;2023-01-28T23:07:02;2.30;1.00
3778;DHT22;1904;50.076;8.660;2023-01-28T23:12:32;2.20;1.00
3778;DHT22;1904;50.076;8.660;2023-01-28T23:18:02;2.30;1.00
3778;DHT22;1904;50.076;8.660;2023-01-28T23:20:46;2.20;1.00
3778;DHT22;1904;50.076;8.660;2023-01-28T23:23:32;2.20;1.00
3778;DHT22;1904;50.076;8.660;2023-01-28T23:26:16;2.20;1.00
3778;DHT22;1904;50.076;8.660;2023-01-28T23:28:44;2.20;1.00
3778;DHT22;1904;50.076;8.660;2023-01-28T23:31:10;2.20;1.00
3778;DHT22;1904;50.076;8.660;2023-01-28T23:36:21;2.10;1.00
3778;DHT22;1904;50.076;8.660;2023-01-28T23:38:47;2.10;1.00
3778;DHT22;1904;50.076;8.660;2023-01-28T23:41:12;2.10;1.00
3778;DHT22;1904;50.076;8.660;2023-01-28T23:43:38;2.10;1.00
3778;DHT22;1904;50.076;8.660;2023-01-28T23:46:14;2.10;1.00
3778;DHT22;1904;50.076;8.660;2023-01-28T23:48:44;2.10;1.00
3778;DHT22;1904;50.076;8.660;2023-01-28T23:51:09;2.10;1.00
3778;DHT22;1904;50.076;8.660;2023-01-28T23:53:35;2.10;1.00
3778;DHT22;1904;50.076;8.660;2023-01-28T23:56:05;2.10;1.00
3778;DHT22;1904;50.076;8.660;2023-01-28T23:58:32;2.10;1.00
